Time;durP1;ratioP1;P1;durP2;ratioP2;P2;SDS_P1;SDS_P2;PMS_P1;PMS_P2;Temp;Humidity;BMP_temperature;BMP_pressure;BME280_temperature;BME280_humidity;BME280_pressure;Samples;Min_cycle;Max_cycle;Signal;HPM_P1;HPM_P2
2024/04/15 00:01:54;;;;;;;10.52;4.50;;;;;;;;;;5464989;26;20026;-66
2024/04/15 00:04:20;;;;;;;5.72;4.47;;;;;;;;;;5455774;26;20055;-67
2024/04/15 00:06:46;;;;;;;5.85;4.40;;;;;;;;;;5458378;26;20022;-68
2024/04/15 00:09:13;;;;;;;7.13;4.97;;;;;;;;;;5463232;26;20042;-64
2024/04/15 00:11:39;;;;;;;5.85;4.22;;;;;;;;;;5431556;26;20028;-67
2024/04/15 00:14:05;;;;;;;5.53;4.20;;;;;;;;;;5461631;26;20030;-66
2024/04/15 00:16:31;;;;;;;7.75;4.60;;;;;;;;;;5435223;26;20034;-66
2024/04/15 00:18:57;;;;;;;6.07;4.60;;;;;;;;;;5460619;26;20097;-66
2024/04/15 00:21:23;;;;;;;6.70;4.60;;;;;;;;;;5456553;26;20031;-66
2024/04/15 00:23:49;;;;;;;5.72;4.30;;;;;;;;;;5481564;26;20026;-66
2024/04/15 00:26:16;;;;;;;6.75;4.38;;;;;;;;;;5470518;26;20035;-66
2024/04/15 00:28:42;;;;;;;7.82;4.38;;;;;;;;;;5465125;26;20370;-67
2024/04/15 00:31:08;;;;;;;8.73;4.68;;;;;;;;;;5449996;26;20026;-66
2024/04/15 00:33:34;;;;;;;6.93;4.43;;;;;;;;;;5457471;26;20030;-67
2024/04/15 00:36:00;;;;;;;6.88;4.40;;;;;;;;;;5463092;26;20027;-66
2024/04/15 00:38:26;;;;;;;6.38;4.18;;;;;;;;;;5459827;26;20103;-66
2024/04/15 00:40:52;;;;;;;5.25;4.55;;;;;;;;;;5460688;26;20027;-66
2024/04/15 00:43:18;;;;;;;7.03;4.70;;;;;;;;;;5436220;26;20010;-66
2024/04/15 00:45:45;;;;;;;6.97;4.50;;;;;;;;;;5458806;26;20046;-65
2024/04/15 00:48:16;;;;;;;8.55;4.55;;;;;;;;;;5458594;26;20063;-65
2024/04/15 00:50:44;;;;;;;10.50;4.80;;;;;;;;;;5419741;26;20026;-66
2024/04/15 00:53:12;;;;;;;6.68;4.57;;;;;;;;;;5468797;26;20029;-66
2024/04/15 00:55:41;;;;;;;5.90;4.22;;;;;;;;;;5463277;26;20035;-66
2024/04/15 00:58:07;;;;;;;6.95;4.45;;;;;;;;;;5466448;26;20034;-65
2024/04/15 01:00:34;;;;;;;5.45;4.10;;;;;;;;;;5478958;26;20034;-66
2024/04/15 01:03:00;;;;;;;9.63;4.35;;;;;;;;;;5423711;26;20035;-65
2024/04/15 01:05:26;;;;;;;8.68;4.30;;;;;;;;;;5461838;26;20039;-66
2024/04/15 01:07:53;;;;;;;5.40;3.92;;;;;;;;;;5464973;26;20030;-66
2024/04/15 01:10:19;;;;;;;6.18;4.50;;;;;;;;;;5471771;26;20042;-66
2024/04/15 01:12:46;;;;;;;6.63;4.80;;;;;;;;;;5463770;26;20033;-66
2024/04/15 01:15:12;;;;;;;10.80;4.70;;;;;;;;;;5473140;26;20034;-67
2024/04/15 01:17:38;;;;;;;6.63;4.05;;;;;;;;;;5467957;26;20030;-68
2024/04/15 01:20:04;;;;;;;5.90;4.32;;;;;;;;;;5474221;26;20031;-67
2024/04/15 01:22:37;;;;;;;6.50;4.07;;;;;;;;;;5478869;26;20029;-67
2024/04/15 01:25:03;;;;;;;5.20;3.75;;;;;;;;;;5467742;26;20023;-66
2024/04/15 01:27:30;;;;;;;6.13;4.05;;;;;;;;;;5475899;26;20030;-66
2024/04/15 01:29:56;;;;;;;4.85;3.92;;;;;;;;;;5471038;26;20038;-66
2024/04/15 01:32:22;;;;;;;5.35;4.40;;;;;;;;;;5476699;26;20034;-66
2024/04/15 01:34:49;;;;;;;7.35;4.28;;;;;;;;;;5462696;26;20027;-66
2024/04/15 01:37:15;;;;;;;5.13;4.10;;;;;;;;;;5467479;26;20039;-66
2024/04/15 01:39:41;;;;;;;5.13;4.05;;;;;;;;;;5476977;26;20030;-66
2024/04/15 01:42:07;;;;;;;5.95;4.28;;;;;;;;;;5468090;26;19994;-66
2024/04/15 01:44:33;;;;;;;5.38;3.95;;;;;;;;;;5472349;26;20042;-66
2024/04/15 01:46:59;;;;;;;5.80;3.92;;;;;;;;;;5474909;26;20030;-66
2024/04/15 01:49:25;;;;;;;5.82;4.22;;;;;;;;;;5467937;26;20029;-67
2024/04/15 01:51:51;;;;;;;4.72;3.75;;;;;;;;;;5475531;26;20027;-66
2024/04/15 01:54:17;;;;;;;4.57;3.67;;;;;;;;;;5465878;26;20766;-67
2024/04/15 01:56:44;;;;;;;5.07;4.22;;;;;;;;;;5472346;26;20042;-66
2024/04/15 01:59:10;;;;;;;5.68;4.30;;;;;;;;;;5473620;26;20047;-66
2024/04/15 02:01:36;;;;;;;9.07;4.60;;;;;;;;;;5468162;26;20050;-67
2024/04/15 02:04:02;;;;;;;6.60;4.20;;;;;;;;;;5472483;26;20026;-66
2024/04/15 02:06:28;;;;;;;9.02;4.90;;;;;;;;;;5472887;26;20385;-66
2024/04/15 02:08:54;;;;;;;5.10;4.40;;;;;;;;;;5471154;26;20518;-67
2024/04/15 02:11:21;;;;;;;7.75;4.30;;;;;;;;;;5449867;26;20030;-66
2024/04/15 02:13:47;;;;;;;6.32;4.72;;;;;;;;;;5471435;26;20370;-67
2024/04/15 02:16:13;;;;;;;6.55;4.22;;;;;;;;;;5473191;26;20490;-66
2024/04/15 02:18:39;;;;;;;6.35;4.45;;;;;;;;;;5481342;26;20466;-66
2024/04/15 02:21:05;;;;;;;7.78;4.32;;;;;;;;;;5479080;26;20034;-66
2024/04/15 02:23:31;;;;;;;6.60;4.53;;;;;;;;;;5483266;26;20390;-66
2024/04/15 02:25:57;;;;;;;8.48;4.38;;;;;;;;;;5480673;26;20035;-66
2024/04/15 02:28:23;;;;;;;7.10;4.63;;;;;;;;;;5481947;26;20034;-67
2024/04/15 02:30:50;;;;;;;6.57;4.30;;;;;;;;;;5465812;26;20031;-66
2024/04/15 02:33:16;;;;;;;9.15;4.28;;;;;;;;;;5481791;26;20026;-67
2024/04/15 02:35:42;;;;;;;7.75;5.20;;;;;;;;;;5471889;26;20035;-67
2024/04/15 02:38:08;;;;;;;6.72;4.88;;;;;;;;;;5469203;26;20078;-66
2024/04/15 02:40:34;;;;;;;6.03;4.68;;;;;;;;;;5472930;26;20053;-65
2024/04/15 02:43:01;;;;;;;7.20;4.68;;;;;;;;;;5448220;26;20010;-65
2024/04/15 02:45:27;;;;;;;6.97;4.97;;;;;;;;;;5476370;26;20030;-66
2024/04/15 02:47:53;;;;;;;6.65;5.15;;;;;;;;;;5456456;26;20039;-66
2024/04/15 02:50:19;;;;;;;8.70;5.30;;;;;;;;;;5472356;26;20120;-66
2024/04/15 02:52:45;;;;;;;7.85;5.45;;;;;;;;;;5470512;26;20026;-66
2024/04/15 02:55:11;;;;;;;9.32;5.63;;;;;;;;;;5465321;26;20038;-66
2024/04/15 02:57:37;;;;;;;9.45;5.93;;;;;;;;;;5444425;26;20058;-61
2024/04/15 03:00:05;;;;;;;8.65;6.00;;;;;;;;;;5468384;26;20038;-64
2024/04/15 03:02:31;;;;;;;9.60;6.00;;;;;;;;;;5474044;26;20030;-62
2024/04/15 03:04:58;;;;;;;12.65;6.28;;;;;;;;;;5468336;26;20031;-62
2024/04/15 03:07:24;;;;;;;9.25;6.28;;;;;;;;;;5475136;26;20035;-61
2024/04/15 03:09:54;;;;;;;12.45;6.47;;;;;;;;;;5473843;26;20031;-62
2024/04/15 03:12:20;;;;;;;11.30;6.63;;;;;;;;;;5472937;26;20038;-61
2024/04/15 03:14:46;;;;;;;11.15;6.60;;;;;;;;;;5474398;26;20108;-62
2024/04/15 03:17:12;;;;;;;13.23;7.20;;;;;;;;;;5478136;26;20043;-63
2024/04/15 03:19:38;;;;;;;14.18;6.22;;;;;;;;;;5477611;26;20026;-63
2024/04/15 03:22:05;;;;;;;9.40;5.63;;;;;;;;;;5457823;26;20034;-63
2024/04/15 03:24:31;;;;;;;13.48;6.25;;;;;;;;;;5482552;26;20038;-64
2024/04/15 03:26:58;;;;;;;14.98;6.30;;;;;;;;;;5463897;26;20034;-64
2024/04/15 03:29:24;;;;;;;9.48;5.78;;;;;;;;;;5470495;26;20030;-64
2024/04/15 03:31:50;;;;;;;15.07;6.32;;;;;;;;;;5466914;26;20034;-64
2024/04/15 03:34:18;;;;;;;15.52;6.30;;;;;;;;;;5467230;26;20030;-64
2024/04/15 03:36:44;;;;;;;14.85;7.70;;;;;;;;;;5465342;26;20375;-63
2024/04/15 03:39:10;;;;;;;10.70;6.25;;;;;;;;;;5463151;26;20038;-64
2024/04/15 03:41:36;;;;;;;10.98;7.07;;;;;;;;;;5427885;26;20042;-64
2024/04/15 03:44:03;;;;;;;13.52;7.45;;;;;;;;;;5449965;26;20034;-63
2024/04/15 03:46:32;;;;;;;18.08;7.93;;;;;;;;;;5469892;26;20030;-63
2024/04/15 03:48:58;;;;;;;16.13;8.48;;;;;;;;;;5432252;26;20408;-64
2024/04/15 03:51:24;;;;;;;14.55;7.50;;;;;;;;;;5468988;26;20059;-63
2024/04/15 03:53:50;;;;;;;14.02;7.95;;;;;;;;;;5485304;26;20850;-63
2024/04/15 03:56:17;;;;;;;11.65;7.95;;;;;;;;;;5484167;26;20034;-63
2024/04/15 03:58:43;;;;;;;16.83;7.57;;;;;;;;;;5470497;26;20038;-63
2024/04/15 04:01:09;;;;;;;12.07;7.45;;;;;;;;;;5471251;25;20031;-63
2024/04/15 04:03:35;;;;;;;16.45;8.07;;;;;;;;;;5474701;26;20042;-63
2024/04/15 04:06:01;;;;;;;14.23;8.75;;;;;;;;;;5468924;26;20047;-63
2024/04/15 04:08:27;;;;;;;16.58;7.90;;;;;;;;;;5475238;26;20026;-63
2024/04/15 04:10:53;;;;;;;13.60;7.40;;;;;;;;;;5470044;26;20026;-63
2024/04/15 04:13:19;;;;;;;14.07;7.88;;;;;;;;;;5479718;26;21874;-63
2024/04/15 04:15:45;;;;;;;14.10;7.60;;;;;;;;;;5472861;26;20039;-63
2024/04/15 04:18:12;;;;;;;17.40;7.88;;;;;;;;;;5470869;26;20389;-63
2024/04/15 04:20:38;;;;;;;13.40;7.82;;;;;;;;;;5478311;26;20026;-63
2024/04/15 04:23:04;;;;;;;16.30;8.00;;;;;;;;;;5490883;26;20021;-63
2024/04/15 04:25:30;;;;;;;16.13;8.23;;;;;;;;;;5438336;26;20038;-63
2024/04/15 04:27:56;;;;;;;15.85;7.82;;;;;;;;;;5466171;25;20026;-63
2024/04/15 04:30:23;;;;;;;15.98;7.85;;;;;;;;;;5469757;26;20026;-62
2024/04/15 04:32:49;;;;;;;17.63;8.80;;;;;;;;;;5465507;26;20039;-63
2024/04/15 04:35:15;;;;;;;16.55;8.02;;;;;;;;;;5472058;26;20047;-63
2024/04/15 04:37:41;;;;;;;15.68;7.97;;;;;;;;;;5464559;26;20041;-64
2024/04/15 04:40:08;;;;;;;17.33;8.50;;;;;;;;;;5462009;26;20459;-63
2024/04/15 04:42:34;;;;;;;12.52;7.65;;;;;;;;;;5472619;26;20030;-63
2024/04/15 04:45:00;;;;;;;12.20;7.70;;;;;;;;;;5479108;26;20980;-63
2024/04/15 04:47:26;;;;;;;16.13;7.80;;;;;;;;;;5455456;26;20042;-64
2024/04/15 04:49:53;;;;;;;20.23;9.00;;;;;;;;;;5467327;26;20047;-64
2024/04/15 04:52:19;;;;;;;15.23;7.93;;;;;;;;;;5465112;26;20033;-64
2024/04/15 04:54:49;;;;;;;15.15;7.88;;;;;;;;;;5442388;26;20382;-64
2024/04/15 04:57:15;;;;;;;13.93;8.15;;;;;;;;;;5469195;26;20035;-64
2024/04/15 04:59:41;;;;;;;15.45;7.95;;;;;;;;;;5463613;26;20033;-65
2024/04/15 05:02:10;;;;;;;13.18;8.73;;;;;;;;;;5471603;25;20031;-65
2024/04/15 05:04:36;;;;;;;15.90;8.05;;;;;;;;;;5469860;26;20042;-64
2024/04/15 05:07:02;;;;;;;17.65;7.60;;;;;;;;;;5472472;26;20031;-63
2024/04/15 05:09:28;;;;;;;16.08;8.18;;;;;;;;;;5472957;26;20054;-61
2024/04/15 05:11:54;;;;;;;17.65;7.70;;;;;;;;;;5476122;26;20054;-62
2024/04/15 05:14:21;;;;;;;16.80;7.90;;;;;;;;;;5482988;26;20102;-61
2024/04/15 05:16:48;;;;;;;14.57;7.60;;;;;;;;;;5473137;26;20033;-62
2024/04/15 05:19:14;;;;;;;13.80;7.88;;;;;;;;;;5486244;26;20034;-62
2024/04/15 05:21:40;;;;;;;12.63;7.20;;;;;;;;;;5474473;26;20042;-62
2024/04/15 05:24:06;;;;;;;16.80;7.63;;;;;;;;;;5468332;26;20035;-62
2024/04/15 05:26:32;;;;;;;14.45;7.65;;;;;;;;;;5470626;26;20025;-62
2024/04/15 05:28:58;;;;;;;15.65;7.40;;;;;;;;;;5465352;26;20046;-61
2024/04/15 05:31:25;;;;;;;14.40;7.75;;;;;;;;;;5468291;26;20042;-60
2024/04/15 05:33:51;;;;;;;16.10;9.48;;;;;;;;;;5461693;26;20059;-61
2024/04/15 05:36:17;;;;;;;13.63;7.65;;;;;;;;;;5480156;26;20037;-60
2024/04/15 05:38:43;;;;;;;12.50;7.43;;;;;;;;;;5474997;26;20509;-61
2024/04/15 05:41:09;;;;;;;17.90;8.05;;;;;;;;;;5474102;26;20029;-62
2024/04/15 05:43:35;;;;;;;14.70;7.50;;;;;;;;;;5467827;26;20017;-61
2024/04/15 05:46:02;;;;;;;15.05;7.38;;;;;;;;;;5471994;26;20046;-61
2024/04/15 05:48:28;;;;;;;16.63;8.07;;;;;;;;;;5482732;26;20031;-61
2024/04/15 05:50:54;;;;;;;15.50;7.50;;;;;;;;;;5425373;26;20034;-61
2024/04/15 05:53:20;;;;;;;17.67;8.43;;;;;;;;;;5473641;25;20065;-60
2024/04/15 05:55:47;;;;;;;14.20;7.88;;;;;;;;;;5480735;26;20025;-60
2024/04/15 05:58:13;;;;;;;18.15;8.57;;;;;;;;;;5473731;26;20030;-60
2024/04/15 06:00:39;;;;;;;15.32;8.02;;;;;;;;;;5470617;26;20041;-60
2024/04/15 06:03:06;;;;;;;14.52;7.70;;;;;;;;;;5471939;26;20033;-60
2024/04/15 06:05:33;;;;;;;15.80;8.40;;;;;;;;;;5478502;26;20043;-59
2024/04/15 06:07:59;;;;;;;15.43;8.15;;;;;;;;;;5473580;26;20034;-60
2024/04/15 06:10:25;;;;;;;15.45;7.75;;;;;;;;;;5477610;26;20026;-60
2024/04/15 06:12:51;;;;;;;14.82;8.23;;;;;;;;;;5478187;26;20478;-60
2024/04/15 06:15:17;;;;;;;15.30;7.95;;;;;;;;;;5485986;26;20042;-61
2024/04/15 06:17:44;;;;;;;15.55;8.07;;;;;;;;;;5483876;26;20023;-60
2024/04/15 06:20:10;;;;;;;16.33;7.50;;;;;;;;;;5487807;26;20026;-60
2024/04/15 06:22:36;;;;;;;16.45;7.57;;;;;;;;;;5473850;26;20030;-60
2024/04/15 06:25:02;;;;;;;12.27;7.15;;;;;;;;;;5468743;26;20027;-60
2024/04/15 06:27:30;;;;;;;15.55;7.30;;;;;;;;;;5491626;26;20026;-59
2024/04/15 06:29:56;;;;;;;13.45;7.13;;;;;;;;;;5477070;26;20086;-59
2024/04/15 06:32:22;;;;;;;14.10;7.07;;;;;;;;;;5470125;26;20034;-59
2024/04/15 06:34:48;;;;;;;11.02;6.20;;;;;;;;;;5461643;26;20038;-60
2024/04/15 06:37:14;;;;;;;14.55;6.60;;;;;;;;;;5463245;26;20034;-62
2024/04/15 06:39:42;;;;;;;14.07;5.90;;;;;;;;;;5480603;26;20034;-60
2024/04/15 06:42:08;;;;;;;14.13;6.78;;;;;;;;;;5462814;26;20031;-61
2024/04/15 06:44:35;;;;;;;11.45;5.80;;;;;;;;;;5477677;26;20030;-60
2024/04/15 06:47:01;;;;;;;11.98;6.03;;;;;;;;;;5461802;26;20031;-60
2024/04/15 06:49:27;;;;;;;11.50;5.03;;;;;;;;;;5485578;26;20109;-60
2024/04/15 06:51:54;;;;;;;9.38;5.40;;;;;;;;;;5469280;26;20027;-62
2024/04/15 06:54:20;;;;;;;8.90;5.20;;;;;;;;;;5475874;26;20050;-61
2024/04/15 06:56:47;;;;;;;9.43;4.88;;;;;;;;;;5436671;26;20029;-62
2024/04/15 06:59:13;;;;;;;9.57;4.90;;;;;;;;;;5475139;26;20378;-62
2024/04/15 07:01:39;;;;;;;12.02;5.97;;;;;;;;;;5471028;26;20031;-62
2024/04/15 07:04:06;;;;;;;10.05;4.85;;;;;;;;;;5470941;26;20392;-63
2024/04/15 07:06:32;;;;;;;8.15;4.50;;;;;;;;;;5473329;26;20049;-62
2024/04/15 07:08:58;;;;;;;8.10;4.15;;;;;;;;;;5477242;26;20034;-62
2024/04/15 07:11:24;;;;;;;7.65;3.90;;;;;;;;;;5447229;26;20038;-60
2024/04/15 07:13:50;;;;;;;8.88;3.63;;;;;;;;;;5478399;26;20017;-62
2024/04/15 07:16:17;;;;;;;7.47;3.40;;;;;;;;;;5470932;26;20022;-60
2024/04/15 07:18:46;;;;;;;7.55;3.53;;;;;;;;;;5479290;26;20370;-60
2024/04/15 07:21:12;;;;;;;9.10;3.78;;;;;;;;;;5470368;26;20030;-61
2024/04/15 07:23:39;;;;;;;8.38;3.50;;;;;;;;;;5472661;26;20035;-61
2024/04/15 07:26:05;;;;;;;7.28;3.75;;;;;;;;;;5432969;26;20367;-60
2024/04/15 07:28:31;;;;;;;6.07;3.30;;;;;;;;;;5475282;26;20030;-60
2024/04/15 07:30:59;;;;;;;5.40;3.50;;;;;;;;;;5439450;26;20034;-61
2024/04/15 07:33:26;;;;;;;8.95;4.05;;;;;;;;;;5451802;26;20386;-60
2024/04/15 07:35:55;;;;;;;9.45;4.30;;;;;;;;;;5470749;26;20038;-63
2024/04/15 07:38:21;;;;;;;11.30;3.97;;;;;;;;;;5447091;26;20510;-61
2024/04/15 07:40:47;;;;;;;8.35;3.95;;;;;;;;;;5474250;26;20026;-63
2024/04/15 07:43:14;;;;;;;10.02;5.28;;;;;;;;;;5467568;26;20030;-61
2024/04/15 07:45:40;;;;;;;10.00;4.20;;;;;;;;;;5449635;26;20026;-61
2024/04/15 07:48:06;;;;;;;7.50;3.85;;;;;;;;;;5472831;26;20042;-62
2024/04/15 07:50:32;;;;;;;6.38;3.42;;;;;;;;;;5470536;26;20399;-61
2024/04/15 07:53:01;;;;;;;11.35;4.22;;;;;;;;;;5464682;26;20038;-61
2024/04/15 07:55:27;;;;;;;15.55;4.90;;;;;;;;;;5471148;26;20069;-61
2024/04/15 07:57:55;;;;;;;7.65;4.35;;;;;;;;;;5467139;26;20031;-61
2024/04/15 08:00:21;;;;;;;7.25;4.50;;;;;;;;;;5477252;26;20041;-61
2024/04/15 08:02:47;;;;;;;14.10;5.38;;;;;;;;;;5473366;26;20026;-61
2024/04/15 08:05:13;;;;;;;13.52;5.05;;;;;;;;;;5477448;26;20476;-62
2024/04/15 08:07:40;;;;;;;9.05;4.30;;;;;;;;;;5475874;26;20397;-61
2024/04/15 08:10:06;;;;;;;9.70;5.30;;;;;;;;;;5476554;26;20026;-63
2024/04/15 08:12:32;;;;;;;11.20;4.80;;;;;;;;;;5484284;26;20049;-61
2024/04/15 08:14:58;;;;;;;12.93;5.10;;;;;;;;;;5476058;26;20026;-61
2024/04/15 08:17:25;;;;;;;14.98;6.80;;;;;;;;;;5450898;26;20029;-61
2024/04/15 08:19:52;;;;;;;11.18;6.35;;;;;;;;;;5471416;26;20039;-61
2024/04/15 08:22:18;;;;;;;10.63;4.32;;;;;;;;;;5474739;26;20534;-61
2024/04/15 08:24:49;;;;;;;6.90;3.95;;;;;;;;;;5471453;26;20025;-62
2024/04/15 08:27:20;;;;;;;10.00;4.38;;;;;;;;;;5468225;26;20035;-61
2024/04/15 08:29:47;;;;;;;10.30;5.07;;;;;;;;;;5470443;26;20034;-62
2024/04/15 08:32:13;;;;;;;9.23;4.35;;;;;;;;;;5446927;26;20030;-62
2024/04/15 08:34:40;;;;;;;6.03;3.92;;;;;;;;;;5473421;26;20538;-60
2024/04/15 08:37:07;;;;;;;9.02;3.80;;;;;;;;;;5481592;26;20041;-60
2024/04/15 08:39:35;;;;;;;11.55;4.43;;;;;;;;;;5448424;26;20049;-61
2024/04/15 08:42:22;;;;;;;6.28;3.80;;;;;;;;;;5473723;26;20030;-61
2024/04/15 08:44:48;;;;;;;9.77;4.43;;;;;;;;;;5482209;26;20051;-59
2024/04/15 08:47:23;;;;;;;11.95;5.43;;;;;;;;;;5491977;26;20029;-61
2024/04/15 08:49:50;;;;;;;24.90;8.60;;;;;;;;;;5483412;26;20549;-62
2024/04/15 08:52:17;;;;;;;11.07;5.10;;;;;;;;;;5471791;26;20029;-62
2024/04/15 08:54:43;;;;;;;6.55;4.07;;;;;;;;;;5472990;26;20046;-62
2024/04/15 08:57:12;;;;;;;7.82;3.80;;;;;;;;;;5478224;26;20032;-61
2024/04/15 08:59:42;;;;;;;11.30;5.72;;;;;;;;;;5478092;26;20029;-61
2024/04/15 09:02:13;;;;;;;10.65;4.82;;;;;;;;;;5477882;26;20029;-60
2024/04/15 09:04:40;;;;;;;8.07;4.25;;;;;;;;;;5481635;26;20029;-61
2024/04/15 09:07:07;;;;;;;10.75;4.20;;;;;;;;;;5485770;26;20029;-59
2024/04/15 09:09:33;;;;;;;14.18;5.20;;;;;;;;;;5474421;26;20353;-61
2024/04/15 09:12:02;;;;;;;12.97;5.20;;;;;;;;;;5476180;26;20061;-61
2024/04/15 09:14:28;;;;;;;10.57;4.80;;;;;;;;;;5465961;26;20026;-61
2024/04/15 09:16:55;;;;;;;12.57;4.00;;;;;;;;;;5470956;26;20066;-61
2024/04/15 09:19:26;;;;;;;8.23;3.90;;;;;;;;;;5432308;26;20020;-61
2024/04/15 09:22:00;;;;;;;8.60;3.85;;;;;;;;;;5469706;26;20034;-60
2024/04/15 09:24:28;;;;;;;11.77;4.38;;;;;;;;;;5464297;26;20042;-60
2024/04/15 09:26:54;;;;;;;12.57;4.60;;;;;;;;;;5455806;26;20030;-61
2024/04/15 09:29:20;;;;;;;9.75;4.47;;;;;;;;;;5469167;26;20042;-61
2024/04/15 09:31:47;;;;;;;11.75;5.40;;;;;;;;;;5457521;26;20161;-60
2024/04/15 09:34:15;;;;;;;13.80;6.28;;;;;;;;;;5473884;26;20041;-60
2024/04/15 09:36:57;;;;;;;9.55;4.30;;;;;;;;;;5479028;26;20026;-60
2024/04/15 09:39:23;;;;;;;7.30;3.95;;;;;;;;;;5480928;26;20030;-60
2024/04/15 09:41:52;;;;;;;10.52;4.72;;;;;;;;;;5475923;26;20042;-62
2024/04/15 09:44:20;;;;;;;8.85;4.45;;;;;;;;;;5467947;26;20379;-60
2024/04/15 09:46:47;;;;;;;7.97;4.40;;;;;;;;;;5470521;26;20026;-60
2024/04/15 09:49:14;;;;;;;14.55;4.30;;;;;;;;;;5467536;26;20035;-61
2024/04/15 09:51:41;;;;;;;6.45;4.00;;;;;;;;;;5473304;26;20026;-61
2024/04/15 09:54:09;;;;;;;8.80;4.38;;;;;;;;;;5437110;26;20561;-60
2024/04/15 09:56:46;;;;;;;8.85;4.43;;;;;;;;;;5469169;26;20027;-60
2024/04/15 09:59:14;;;;;;;12.20;5.03;;;;;;;;;;5440338;26;20042;-60
2024/04/15 10:01:42;;;;;;;6.22;3.97;;;;;;;;;;5477335;26;20049;-59
2024/04/15 10:04:21;;;;;;;6.88;3.70;;;;;;;;;;5470487;26;20042;-61
2024/04/15 10:06:53;;;;;;;10.77;4.60;;;;;;;;;;5445920;26;20039;-60
2024/04/15 10:09:19;;;;;;;9.38;3.90;;;;;;;;;;5470805;26;20034;-60
2024/04/15 10:11:47;;;;;;;7.60;3.40;;;;;;;;;;5466955;26;20022;-60
2024/04/15 10:14:18;;;;;;;8.38;3.60;;;;;;;;;;5473918;26;20039;-60
2024/04/15 10:16:49;;;;;;;7.45;4.22;;;;;;;;;;5483216;26;20062;-61
2024/04/15 10:19:32;;;;;;;12.65;4.60;;;;;;;;;;5474036;26;20047;-60
2024/04/15 10:21:59;;;;;;;8.05;4.28;;;;;;;;;;5465433;26;20513;-60
2024/04/15 10:24:25;;;;;;;7.25;4.22;;;;;;;;;;5474687;26;20026;-59
2024/04/15 10:26:56;;;;;;;9.15;3.70;;;;;;;;;;5476019;26;20027;-61
2024/04/15 10:29:24;;;;;;;7.25;4.22;;;;;;;;;;5467036;26;20038;-61
2024/04/15 10:31:56;;;;;;;9.73;4.38;;;;;;;;;;5458891;26;20042;-60
2024/04/15 10:34:23;;;;;;;9.10;3.50;;;;;;;;;;5476556;26;20042;-60
2024/04/15 10:36:54;;;;;;;10.07;3.65;;;;;;;;;;5443995;26;20495;-60
2024/04/15 10:39:21;;;;;;;7.45;3.42;;;;;;;;;;5482043;26;20391;-60
2024/04/15 10:41:48;;;;;;;7.20;3.83;;;;;;;;;;5471263;26;20030;-60
2024/04/15 10:44:14;;;;;;;10.38;3.83;;;;;;;;;;5487285;26;20038;-60
2024/04/15 10:46:43;;;;;;;9.25;3.58;;;;;;;;;;5472589;26;20039;-61
2024/04/15 10:49:09;;;;;;;10.10;3.63;;;;;;;;;;5485384;26;20041;-61
2024/04/15 10:51:35;;;;;;;11.60;3.95;;;;;;;;;;5474705;26;20054;-61
2024/04/15 10:54:02;;;;;;;14.73;3.80;;;;;;;;;;5475719;26;20031;-60
2024/04/15 10:56:28;;;;;;;9.85;4.13;;;;;;;;;;5477396;26;20034;-59
2024/04/15 10:58:54;;;;;;;11.70;4.40;;;;;;;;;;5468268;26;20030;-59
2024/04/15 11:01:21;;;;;;;11.15;3.50;;;;;;;;;;5481775;26;20037;-59
2024/04/15 11:03:48;;;;;;;8.95;4.18;;;;;;;;;;5481473;26;20034;-59
2024/04/15 11:06:18;;;;;;;11.43;3.90;;;;;;;;;;5469040;26;20031;-58
2024/04/15 11:08:45;;;;;;;9.85;3.40;;;;;;;;;;5483621;26;20082;-65
2024/04/15 11:11:13;;;;;;;6.00;3.17;;;;;;;;;;5480151;26;20038;-66
2024/04/15 11:13:40;;;;;;;11.13;3.47;;;;;;;;;;5483134;26;20034;-67
2024/04/15 11:16:07;;;;;;;8.93;3.00;;;;;;;;;;5481964;26;20039;-67
2024/04/15 11:18:33;;;;;;;11.07;3.47;;;;;;;;;;5470677;26;20394;-65
2024/04/15 11:21:02;;;;;;;13.10;2.95;;;;;;;;;;5464204;26;20031;-68
2024/04/15 11:23:34;;;;;;;16.75;2.85;;;;;;;;;;5474177;26;20027;-66
2024/04/15 11:26:01;;;;;;;18.80;3.35;;;;;;;;;;5469418;26;20054;-65
2024/04/15 11:28:28;;;;;;;10.80;2.72;;;;;;;;;;5467678;26;20030;-65
2024/04/15 11:30:55;;;;;;;6.80;2.60;;;;;;;;;;5463702;26;20039;-66
2024/04/15 11:33:24;;;;;;;8.52;2.47;;;;;;;;;;5470037;26;20372;-65
2024/04/15 11:35:51;;;;;;;5.68;2.38;;;;;;;;;;5469133;26;20030;-65
2024/04/15 11:38:20;;;;;;;8.57;2.80;;;;;;;;;;5451662;26;20041;-64
2024/04/15 11:40:46;;;;;;;10.27;2.55;;;;;;;;;;5466786;26;20044;-65
2024/04/15 11:43:13;;;;;;;7.38;2.30;;;;;;;;;;5438721;26;20047;-65
2024/04/15 11:45:57;;;;;;;8.05;2.35;;;;;;;;;;5474733;26;20035;-66
2024/04/15 11:48:26;;;;;;;35.78;28.35;;;;;;;;;;5475482;25;20030;-66
2024/04/15 11:50:54;;;;;;;133.10;50.17;;;;;;;;;;5472328;26;20391;-67
2024/04/15 11:53:24;;;;;;;139.05;49.47;;;;;;;;;;5471304;26;20043;-67
2024/04/15 11:55:52;;;;;;;39.75;15.27;;;;;;;;;;5472942;26;20489;-66
2024/04/15 11:58:21;;;;;;;81.28;27.75;;;;;;;;;;5475982;26;20050;-67
2024/04/15 12:00:47;;;;;;;16.60;5.90;;;;;;;;;;5473489;26;20042;-66
2024/04/15 12:03:13;;;;;;;17.55;5.43;;;;;;;;;;5472739;26;20043;-69
2024/04/15 12:05:40;;;;;;;8.88;2.47;;;;;;;;;;5464872;26;20038;-68
2024/04/15 12:08:07;;;;;;;8.65;2.13;;;;;;;;;;5469338;26;20008;-68
2024/04/15 12:10:34;;;;;;;8.55;2.90;;;;;;;;;;5465465;26;20034;-69
2024/04/15 12:13:00;;;;;;;7.75;2.60;;;;;;;;;;5469041;26;20124;-69
2024/04/15 12:15:26;;;;;;;7.95;2.00;;;;;;;;;;5471091;26;20042;-71
2024/04/15 12:17:53;;;;;;;8.57;2.33;;;;;;;;;;5431746;26;20046;-68
2024/04/15 12:20:19;;;;;;;7.05;2.70;;;;;;;;;;5440391;26;20030;-67
2024/04/15 12:22:45;;;;;;;6.43;2.58;;;;;;;;;;5462347;26;20023;-68
2024/04/15 12:25:12;;;;;;;7.47;2.47;;;;;;;;;;5443911;26;20012;-69
2024/04/15 12:27:38;;;;;;;7.70;2.25;;;;;;;;;;5472910;26;20042;-70
2024/04/15 12:30:05;;;;;;;14.77;2.35;;;;;;;;;;5436223;26;20129;-68
2024/04/15 12:32:31;;;;;;;5.03;3.10;;;;;;;;;;5474736;26;20026;-66
2024/04/15 12:34:57;;;;;;;9.30;2.55;;;;;;;;;;5470800;26;20473;-66
2024/04/15 12:37:24;;;;;;;9.18;2.50;;;;;;;;;;5469666;26;20026;-68
2024/04/15 12:39:50;;;;;;;6.15;2.25;;;;;;;;;;5440034;26;20141;-69
2024/04/15 12:42:16;;;;;;;5.70;2.90;;;;;;;;;;5469321;26;20006;-68
2024/04/15 12:44:43;;;;;;;7.32;2.75;;;;;;;;;;5470040;26;20012;-68
2024/04/15 12:47:09;;;;;;;5.22;2.20;;;;;;;;;;5437990;26;20626;-67
2024/04/15 12:49:35;;;;;;;6.38;2.08;;;;;;;;;;5467233;26;20010;-69
2024/04/15 12:52:01;;;;;;;8.38;2.22;;;;;;;;;;5472658;26;20038;-65
2024/04/15 12:54:27;;;;;;;11.63;2.45;;;;;;;;;;5441473;26;20369;-67
2024/04/15 12:56:53;;;;;;;6.68;2.17;;;;;;;;;;5476763;25;20031;-66
2024/04/15 12:59:20;;;;;;;8.43;2.40;;;;;;;;;;5478293;26;20026;-68
2024/04/15 13:01:46;;;;;;;7.45;2.58;;;;;;;;;;5473118;26;19998;-67
2024/04/15 13:04:12;;;;;;;6.57;2.20;;;;;;;;;;5474486;26;20002;-68
2024/04/15 13:06:38;;;;;;;9.90;2.67;;;;;;;;;;5468343;26;20030;-67
2024/04/15 13:09:04;;;;;;;7.82;2.90;;;;;;;;;;5467637;26;20016;-69
2024/04/15 13:11:33;;;;;;;11.52;2.63;;;;;;;;;;5471730;26;20050;-70
2024/04/15 13:14:00;;;;;;;9.13;2.40;;;;;;;;;;5467254;26;20017;-69
2024/04/15 13:16:26;;;;;;;12.38;2.63;;;;;;;;;;5468922;26;20506;-67
2024/04/15 13:18:52;;;;;;;8.38;3.08;;;;;;;;;;5473291;26;20025;-68
2024/04/15 13:21:18;;;;;;;5.85;2.38;;;;;;;;;;5465447;26;20053;-68
2024/04/15 13:23:45;;;;;;;7.40;2.22;;;;;;;;;;5464961;26;20478;-68
2024/04/15 13:26:11;;;;;;;10.23;3.00;;;;;;;;;;5466910;26;20030;-68
2024/04/15 13:28:37;;;;;;;11.55;3.28;;;;;;;;;;5457398;26;20026;-67
2024/04/15 13:31:03;;;;;;;9.80;3.20;;;;;;;;;;5468831;26;20031;-67
2024/04/15 13:33:30;;;;;;;9.57;3.00;;;;;;;;;;5465631;26;20026;-68
2024/04/15 13:35:56;;;;;;;8.93;2.97;;;;;;;;;;5467257;26;20039;-67
2024/04/15 13:38:23;;;;;;;12.07;2.85;;;;;;;;;;5472929;26;20517;-67
2024/04/15 13:40:49;;;;;;;7.85;3.20;;;;;;;;;;5472693;26;20066;-68
2024/04/15 13:43:15;;;;;;;9.07;3.70;;;;;;;;;;5474418;26;21764;-70
2024/04/15 13:45:41;;;;;;;6.00;3.30;;;;;;;;;;5460268;26;20026;-69
2024/04/15 13:48:08;;;;;;;4.90;2.60;;;;;;;;;;5466972;26;20374;-70
2024/04/15 13:50:34;;;;;;;11.07;2.85;;;;;;;;;;5467288;26;20026;-69
2024/04/15 13:53:00;;;;;;;7.63;3.20;;;;;;;;;;5473472;26;20024;-69
2024/04/15 13:55:27;;;;;;;11.00;4.03;;;;;;;;;;5438729;26;20023;-67
2024/04/15 13:57:53;;;;;;;9.52;3.72;;;;;;;;;;5476772;26;20027;-66
2024/04/15 14:00:19;;;;;;;8.27;3.05;;;;;;;;;;5473998;26;20022;-67
2024/04/15 14:02:46;;;;;;;7.25;3.40;;;;;;;;;;5482128;26;20034;-66
2024/04/15 14:05:12;;;;;;;8.68;3.08;;;;;;;;;;5481848;26;20035;-67
2024/04/15 14:07:39;;;;;;;7.90;3.42;;;;;;;;;;5487048;26;20029;-68
2024/04/15 14:10:06;;;;;;;8.38;4.10;;;;;;;;;;5467147;26;20026;-64
2024/04/15 14:12:32;;;;;;;6.88;3.22;;;;;;;;;;5449102;26;20042;-65
2024/04/15 14:14:58;;;;;;;5.90;3.47;;;;;;;;;;5467725;26;20022;-64
2024/04/15 14:17:24;;;;;;;7.90;3.67;;;;;;;;;;5478509;26;20038;-66
2024/04/15 14:19:51;;;;;;;8.98;5.28;;;;;;;;;;5442170;26;20398;-66
2024/04/15 14:22:17;;;;;;;8.52;4.40;;;;;;;;;;5469098;26;20027;-65
2024/04/15 14:24:43;;;;;;;7.00;4.13;;;;;;;;;;5466772;26;20042;-66
2024/04/15 14:27:09;;;;;;;6.05;3.90;;;;;;;;;;5480834;26;20030;-64
2024/04/15 14:29:35;;;;;;;10.23;4.13;;;;;;;;;;5459679;26;20027;-64
2024/04/15 14:32:02;;;;;;;6.63;3.90;;;;;;;;;;5474618;26;20035;-64
2024/04/15 14:34:29;;;;;;;8.85;3.83;;;;;;;;;;5474670;26;20489;-65